createdAt,value
2019-03-04T00:00:14.592Z,13.35
2019-03-04T00:01:14.555Z,13.38
2019-03-04T00:02:14.518Z,13.42
2019-03-04T00:03:14.499Z,13.53
2019-03-04T00:04:14.452Z,13.59
2019-03-04T00:05:14.428Z,13.67
2019-03-04T00:06:14.407Z,13.71
2019-03-04T00:07:14.355Z,13.62
2019-03-04T00:08:14.327Z,13.68
2019-03-04T00:09:14.300Z,13.77
2019-03-04T00:10:14.278Z,13.72
2019-03-04T00:11:14.234Z,13.62
2019-03-04T00:12:14.198Z,13.72
2019-03-04T00:13:14.161Z,13.71
2019-03-04T00:14:14.138Z,13.70
2019-03-04T00:15:14.099Z,13.72
2019-03-04T00:16:14.058Z,13.78
2019-03-04T00:17:14.039Z,13.70
2019-03-04T00:18:14.008Z,13.67
2019-03-04T00:19:13.970Z,13.62
2019-03-04T00:20:13.939Z,13.67
2019-03-04T00:21:13.904Z,13.68
2019-03-04T00:22:13.870Z,13.62
2019-03-04T00:23:13.844Z,13.65
2019-03-04T00:24:13.809Z,13.63
2019-03-04T00:25:13.775Z,13.71
2019-03-04T00:26:13.740Z,13.63
2019-03-04T00:27:13.713Z,13.57
2019-03-04T00:28:13.678Z,13.59
2019-03-04T00:29:13.648Z,13.63
2019-03-04T00:30:13.621Z,13.63
2019-03-04T00:31:13.580Z,13.59
2019-03-04T00:32:13.548Z,13.67
2019-03-04T00:33:13.516Z,13.68
2019-03-04T00:34:13.486Z,13.54
2019-03-04T00:35:13.446Z,13.57
2019-03-04T00:36:13.417Z,13.59
2019-03-04T00:37:13.390Z,13.71
2019-03-04T00:38:13.353Z,13.65
2019-03-04T00:39:13.320Z,13.68
2019-03-04T00:40:13.299Z,13.59
2019-03-04T00:41:13.251Z,13.65
2019-03-04T00:42:13.226Z,13.52
2019-03-04T00:43:13.199Z,13.47
2019-03-04T00:44:13.162Z,13.50
2019-03-04T00:45:13.124Z,13.53
2019-03-04T00:46:13.100Z,13.54
2019-03-04T00:47:13.065Z,13.50
2019-03-04T00:48:13.073Z,13.60
2019-03-04T00:49:13.001Z,13.50
2019-03-04T00:50:12.967Z,13.49
2019-03-04T00:51:12.939Z,13.56
2019-03-04T00:52:12.897Z,13.59
2019-03-04T00:53:12.871Z,13.54
2019-03-04T00:54:12.837Z,13.57
2019-03-04T00:55:12.806Z,13.49
2019-03-04T00:56:12.771Z,13.50
2019-03-04T00:57:12.740Z,13.49
2019-03-04T00:58:12.715Z,13.47
2019-03-04T00:59:12.684Z,13.50
2019-03-04T01:00:12.639Z,13.52
2019-03-04T01:01:12.615Z,13.47
2019-03-04T01:02:12.586Z,13.44
2019-03-04T01:03:12.555Z,13.31
2019-03-04T01:04:12.512Z,13.42
2019-03-04T01:05:12.475Z,13.42
2019-03-04T01:06:12.456Z,13.39
2019-03-04T01:07:12.417Z,13.42
2019-03-04T01:08:12.381Z,13.31
2019-03-04T01:09:12.351Z,13.31
2019-03-04T01:10:12.322Z,13.37
2019-03-04T01:11:12.291Z,13.38
2019-03-04T01:12:12.255Z,13.42
2019-03-04T01:13:12.226Z,13.35
2019-03-04T01:14:12.190Z,13.30
2019-03-04T01:15:12.153Z,13.30
2019-03-04T01:16:12.122Z,13.28
2019-03-04T01:17:12.098Z,13.37
2019-03-04T01:18:12.058Z,13.30
2019-03-04T01:19:12.031Z,13.33
2019-03-04T01:20:11.991Z,13.35
2019-03-04T01:21:11.968Z,13.33
2019-03-04T01:22:11.936Z,13.30
2019-03-04T01:23:11.891Z,13.27
2019-03-04T01:24:11.861Z,13.37
2019-03-04T01:25:11.833Z,13.28
2019-03-04T01:26:11.794Z,13.31
2019-03-04T01:27:11.764Z,13.30
2019-03-04T01:28:11.742Z,13.35
2019-03-04T01:29:11.693Z,13.30
2019-03-04T01:30:11.664Z,13.35
2019-03-04T01:31:11.638Z,13.31
2019-03-04T01:32:11.604Z,13.30
2019-03-04T01:33:11.566Z,13.37
2019-03-04T01:34:11.533Z,13.42
2019-03-04T01:35:11.508Z,13.30
2019-03-04T01:36:11.469Z,13.30
2019-03-04T01:37:11.430Z,13.28
2019-03-04T01:38:11.406Z,13.27
2019-03-04T01:39:11.375Z,13.25
2019-03-04T01:40:11.341Z,13.22
2019-03-04T01:41:11.314Z,13.28
2019-03-04T01:42:11.276Z,13.35
2019-03-04T01:43:11.248Z,13.28
2019-03-04T01:44:11.210Z,13.27
2019-03-04T01:45:11.180Z,13.30
2019-03-04T01:46:11.134Z,13.20
2019-03-04T01:47:11.119Z,13.23
2019-03-04T01:48:11.080Z,13.31
2019-03-04T01:49:11.044Z,13.27
2019-03-04T01:50:11.022Z,13.30
2019-03-04T01:51:10.983Z,13.31
2019-03-04T01:52:10.953Z,13.35
2019-03-04T01:53:10.918Z,13.37
2019-03-04T01:54:10.894Z,13.30
2019-03-04T01:55:10.868Z,13.31
2019-03-04T01:56:10.815Z,13.27
2019-03-04T01:57:10.779Z,13.25
2019-03-04T01:58:10.757Z,13.27
2019-03-04T01:59:10.723Z,13.33
2019-03-04T02:00:10.695Z,13.35
2019-03-04T02:01:10.650Z,13.38
2019-03-04T02:02:10.625Z,13.38
2019-03-04T02:03:10.590Z,13.33
2019-03-04T02:04:10.551Z,13.31
2019-03-04T02:05:10.537Z,13.38
2019-03-04T02:06:10.489Z,13.33
2019-03-04T02:07:10.464Z,13.33
2019-03-04T02:08:10.422Z,13.31
2019-03-04T02:09:10.396Z,13.35
2019-03-04T02:10:10.370Z,13.35
2019-03-04T02:11:10.334Z,13.39
2019-03-04T02:12:10.303Z,13.46
2019-03-04T02:13:10.272Z,13.33
2019-03-04T02:14:10.239Z,13.33
2019-03-04T02:15:10.204Z,13.47
2019-03-04T02:16:10.164Z,13.47
2019-03-04T02:17:10.141Z,13.42
2019-03-04T02:18:10.099Z,13.46
2019-03-04T02:19:10.077Z,13.42
2019-03-04T02:20:10.037Z,13.46
2019-03-04T02:21:10.010Z,13.42
2019-03-04T02:22:09.980Z,13.41
2019-03-04T02:23:09.939Z,13.38
2019-03-04T02:24:09.905Z,13.31
2019-03-04T02:25:09.880Z,13.33
2019-03-04T02:26:09.842Z,13.38
2019-03-04T02:27:09.810Z,13.33
2019-03-04T02:28:09.775Z,13.31
2019-03-04T02:29:09.746Z,13.38
2019-03-04T02:30:09.711Z,13.46
2019-03-04T02:31:09.682Z,13.46
2019-03-04T02:32:09.653Z,13.46
2019-03-04T02:33:09.602Z,13.50
2019-03-04T02:34:09.581Z,13.49
2019-03-04T02:35:09.560Z,13.53
2019-03-04T02:36:09.518Z,13.56
2019-03-04T02:37:09.516Z,13.59
2019-03-04T02:38:09.447Z,13.57
2019-03-04T02:39:09.417Z,13.70
2019-03-04T02:40:09.383Z,13.68
2019-03-04T02:41:09.358Z,13.78
2019-03-04T02:42:09.318Z,13.77
2019-03-04T02:43:09.292Z,13.79
2019-03-04T02:44:09.253Z,13.83
2019-03-04T02:45:09.217Z,13.78
2019-03-04T02:46:09.187Z,13.79
2019-03-04T02:47:09.151Z,13.74
2019-03-04T02:48:09.123Z,13.92
2019-03-04T02:49:09.093Z,13.86
2019-03-04T02:50:09.059Z,13.89
2019-03-04T02:51:09.037Z,13.87
2019-03-04T02:52:08.989Z,13.81
2019-03-04T02:53:08.964Z,13.79
2019-03-04T02:54:08.934Z,13.81
2019-03-04T02:55:08.898Z,13.86
2019-03-04T02:56:08.866Z,13.83
2019-03-04T02:57:08.830Z,13.81
2019-03-04T02:58:08.803Z,13.71
2019-03-04T02:59:08.769Z,13.77
2019-03-04T03:00:08.744Z,13.72
2019-03-04T03:01:08.709Z,13.71
2019-03-04T03:02:08.672Z,13.79
2019-03-04T03:03:08.645Z,13.78
2019-03-04T03:04:08.625Z,13.68
2019-03-04T03:05:08.572Z,13.74
2019-03-04T03:06:08.538Z,13.68
2019-03-04T03:07:08.508Z,13.65
2019-03-04T03:08:08.486Z,13.63
2019-03-04T03:09:08.443Z,13.65
2019-03-04T03:10:08.417Z,13.63
2019-03-04T03:11:08.378Z,13.60
2019-03-04T03:12:08.353Z,13.56
2019-03-04T03:13:08.324Z,13.54
2019-03-04T03:14:08.280Z,13.56
2019-03-04T03:15:08.245Z,13.50
2019-03-04T03:16:08.224Z,13.47
2019-03-04T03:17:08.187Z,13.46
2019-03-04T03:18:08.153Z,13.42
2019-03-04T03:19:08.125Z,13.44
2019-03-04T03:20:08.093Z,13.49
2019-03-04T03:21:08.050Z,13.41
2019-03-04T03:22:08.022Z,13.41
2019-03-04T03:23:07.994Z,13.41
2019-03-04T03:24:07.953Z,13.41
2019-03-04T03:25:07.924Z,13.50
2019-03-04T03:26:07.894Z,13.57
2019-03-04T03:27:07.860Z,13.54
2019-03-04T03:28:07.821Z,13.56
2019-03-04T03:29:07.800Z,13.60
2019-03-04T03:30:07.767Z,13.53
2019-03-04T03:31:07.724Z,13.54
2019-03-04T03:32:07.715Z,13.63
2019-03-04T03:33:07.679Z,13.67
2019-03-04T03:34:07.634Z,13.65
2019-03-04T03:35:08.537Z,13.60
2019-03-04T03:36:07.569Z,13.68
2019-03-04T03:37:07.529Z,13.68
2019-03-04T03:38:07.505Z,13.62
2019-03-04T03:39:07.475Z,13.62
2019-03-04T03:40:07.439Z,13.70
2019-03-04T03:41:07.413Z,13.72
2019-03-04T03:42:07.362Z,13.63
2019-03-04T03:43:07.331Z,13.75
2019-03-04T03:44:07.310Z,13.75
2019-03-04T03:45:07.278Z,13.75
2019-03-04T03:46:07.235Z,13.75
2019-03-04T03:47:07.211Z,13.77
2019-03-04T03:48:07.175Z,13.75
2019-03-04T03:49:07.145Z,13.81
2019-03-04T03:50:07.118Z,13.81
2019-03-04T03:51:07.081Z,13.86
2019-03-04T03:52:07.080Z,13.81
2019-03-04T03:53:07.015Z,13.78
2019-03-04T03:54:06.977Z,13.87
2019-03-04T03:55:06.949Z,13.86
2019-03-04T03:56:06.917Z,13.79
2019-03-04T03:57:06.885Z,13.74
2019-03-04T03:58:06.852Z,13.77
2019-03-04T03:59:06.822Z,13.89
2019-03-04T04:00:06.791Z,13.67
2019-03-04T04:01:06.773Z,13.77
2019-03-04T04:02:06.726Z,13.83
2019-03-04T04:03:06.703Z,13.83
2019-03-04T04:04:06.652Z,13.83
2019-03-04T04:05:06.626Z,13.87
2019-03-04T04:06:06.595Z,13.83
2019-03-04T04:07:06.553Z,13.81
2019-03-04T04:08:06.528Z,13.78
2019-03-04T04:09:06.507Z,13.81
2019-03-04T04:10:06.482Z,13.74
2019-03-04T04:11:06.433Z,13.77
2019-03-04T04:12:06.398Z,13.77
2019-03-04T04:13:06.369Z,13.79
2019-03-04T04:15:38.435Z,13.81
2019-03-04T04:16:38.368Z,13.89
2019-03-04T04:17:38.337Z,13.86
2019-03-04T04:18:38.303Z,13.78
2019-03-04T04:19:38.271Z,13.75
2019-03-04T04:20:38.244Z,13.75
2019-03-04T04:21:38.218Z,13.79
2019-03-04T04:22:38.180Z,13.81
2019-03-04T04:23:38.144Z,13.78
2019-03-04T04:24:38.113Z,13.68
2019-03-04T04:25:38.080Z,13.65
2019-03-04T04:26:38.052Z,13.62
2019-03-04T04:27:38.014Z,13.72
2019-03-04T04:28:37.984Z,13.65
2019-03-04T04:29:37.949Z,13.68
2019-03-04T04:30:37.914Z,13.62
2019-03-04T04:31:37.895Z,13.63
2019-03-04T04:32:37.852Z,13.70
2019-03-04T04:33:37.826Z,13.78
2019-03-04T04:34:37.792Z,13.79
2019-03-04T04:35:37.757Z,13.63
2019-03-04T04:36:37.723Z,13.60
2019-03-04T04:37:37.700Z,13.60
2019-03-04T04:38:37.657Z,13.57
2019-03-04T04:39:37.633Z,13.53
2019-03-04T04:40:37.593Z,13.53
2019-03-04T04:41:37.554Z,13.57
2019-03-04T04:42:37.535Z,13.56
2019-03-04T04:43:37.499Z,13.44
2019-03-04T04:44:37.469Z,13.44
2019-03-04T04:45:37.432Z,13.44
2019-03-04T04:46:37.395Z,13.35
2019-03-04T04:47:37.363Z,13.37
2019-03-04T04:48:37.329Z,13.30
2019-03-04T04:49:37.300Z,13.31
2019-03-04T04:50:37.269Z,13.30
2019-03-04T04:51:37.233Z,13.19
2019-03-04T04:52:37.204Z,13.20
2019-03-04T04:53:37.164Z,13.23
2019-03-04T04:54:37.139Z,13.22
2019-03-04T04:55:37.104Z,13.22
2019-03-04T04:56:37.064Z,13.19
2019-03-04T04:57:37.038Z,13.25
2019-03-04T04:58:37.003Z,13.15
2019-03-04T04:59:36.974Z,13.12
2019-03-04T05:00:36.944Z,13.12
2019-03-04T05:01:36.901Z,13.15
2019-03-04T05:02:36.878Z,13.11
2019-03-04T05:03:36.850Z,13.15
2019-03-04T05:04:36.800Z,13.18
2019-03-04T05:05:36.760Z,13.20
2019-03-04T05:06:36.745Z,13.23
2019-03-04T05:07:36.711Z,13.18
2019-03-04T05:08:36.684Z,13.25
2019-03-04T05:09:36.661Z,13.19
2019-03-04T05:10:36.609Z,13.28
2019-03-04T05:11:36.587Z,13.25
2019-03-04T05:12:36.544Z,13.25
2019-03-04T05:13:36.512Z,13.30
2019-03-04T05:14:36.495Z,13.31
2019-03-04T05:15:36.447Z,13.33
2019-03-04T05:16:36.424Z,13.31
2019-03-04T05:17:36.375Z,13.37
2019-03-04T05:18:36.354Z,13.37
2019-03-04T05:19:36.320Z,13.33
2019-03-04T05:20:36.290Z,13.35
2019-03-04T05:21:36.257Z,13.37
2019-03-04T05:22:36.220Z,13.46
2019-03-04T05:23:36.190Z,13.47
2019-03-04T05:24:36.161Z,13.47
2019-03-04T05:25:36.123Z,13.47
2019-03-04T05:26:36.095Z,13.44
2019-03-04T05:27:36.061Z,13.50
2019-03-04T05:28:36.021Z,13.46
2019-03-04T05:29:35.992Z,13.47
2019-03-04T05:30:35.957Z,13.41
2019-03-04T05:31:35.927Z,13.42
2019-03-04T05:32:35.900Z,13.42
2019-03-04T05:33:35.862Z,13.44
2019-03-04T05:34:35.822Z,13.52
2019-03-04T05:35:35.796Z,13.53
2019-03-04T05:36:35.761Z,13.54
2019-03-04T05:37:35.737Z,13.57
2019-03-04T05:38:35.701Z,13.49
2019-03-04T05:39:35.661Z,13.56
2019-03-04T05:40:35.630Z,13.53
2019-03-04T05:41:35.595Z,13.50
2019-03-04T05:42:35.564Z,13.50
2019-03-04T05:43:35.533Z,13.47
2019-03-04T05:44:35.510Z,13.47
2019-03-04T05:45:35.473Z,13.49
2019-03-04T05:46:35.437Z,13.49
2019-03-04T05:47:35.411Z,13.53
2019-03-04T05:48:35.370Z,13.46
2019-03-04T05:49:35.340Z,13.56
2019-03-04T05:50:35.307Z,13.56
2019-03-04T05:51:35.273Z,13.53
2019-03-04T05:52:35.236Z,13.49
2019-03-04T05:53:35.208Z,13.52
2019-03-04T05:54:35.183Z,13.50
2019-03-04T05:55:35.143Z,13.62
2019-03-04T05:56:35.112Z,13.57
2019-03-04T05:57:35.072Z,13.62
2019-03-04T05:58:35.054Z,13.49
2019-03-04T05:59:35.012Z,13.53
2019-03-04T06:00:34.977Z,13.47
2019-03-04T06:01:34.947Z,13.42
2019-03-04T06:02:34.921Z,13.49
2019-03-04T06:03:34.881Z,13.53
2019-03-04T06:04:34.854Z,13.50
2019-03-04T06:05:34.819Z,13.49
2019-03-04T06:06:34.777Z,13.46
2019-03-04T06:07:34.750Z,13.47
2019-03-04T06:08:34.717Z,13.46
2019-03-04T06:09:34.687Z,12.03
2019-03-04T06:10:34.657Z,11.43
2019-03-04T06:11:34.628Z,10.76
2019-03-04T06:12:34.593Z,10.26
2019-03-04T06:13:34.557Z,10.23
2019-03-04T06:14:34.523Z,9.84
2019-03-04T06:15:34.498Z,9.73
2019-03-04T06:16:34.456Z,9.74
2019-03-04T06:17:34.415Z,9.40
2019-03-04T06:18:34.394Z,9.43
2019-03-04T06:19:34.358Z,9.40
2019-03-04T06:20:34.324Z,9.19
2019-03-04T06:21:34.284Z,9.03
2019-03-04T06:22:34.259Z,8.91
2019-03-04T06:23:34.222Z,9.00
2019-03-04T06:24:34.185Z,9.04
2019-03-04T06:25:34.157Z,9.06
2019-03-04T06:26:34.118Z,9.04
2019-03-04T06:27:34.083Z,9.04
2019-03-04T06:28:34.044Z,9.02
2019-03-04T06:29:34.023Z,8.95
2019-03-04T06:30:33.976Z,8.87
2019-03-04T06:31:33.945Z,8.82
2019-03-04T06:32:33.915Z,8.88
2019-03-04T06:33:33.886Z,8.44
2019-03-04T06:34:33.837Z,8.48
2019-03-04T06:35:33.814Z,8.36
2019-03-04T06:36:33.779Z,8.34
2019-03-04T06:37:33.737Z,8.38
2019-03-04T06:38:33.703Z,8.34
2019-03-04T06:39:33.670Z,8.38
2019-03-04T06:40:33.641Z,8.23
2019-03-04T06:41:33.597Z,8.31
2019-03-04T06:42:33.570Z,8.37
2019-03-04T06:43:33.526Z,8.53
2019-03-04T06:44:33.498Z,8.61
2019-03-04T06:45:33.450Z,8.51
2019-03-04T06:46:33.417Z,8.60
2019-03-04T06:47:33.379Z,8.52
2019-03-04T06:48:33.369Z,8.46
2019-03-04T06:49:33.314Z,8.46
2019-03-04T06:50:33.279Z,8.51
2019-03-04T06:51:33.241Z,8.48
2019-03-04T06:52:33.207Z,8.61
2019-03-04T06:53:33.175Z,8.52
2019-03-04T06:54:33.136Z,8.53
2019-03-04T06:55:33.095Z,8.69
2019-03-04T06:56:33.077Z,8.69
2019-03-04T06:57:33.032Z,8.71
2019-03-04T06:58:32.992Z,8.71
2019-03-04T06:59:32.961Z,8.88
2019-03-04T07:00:32.930Z,8.94
2019-03-04T07:01:32.894Z,8.97
2019-03-04T07:02:32.862Z,9.08
2019-03-04T07:03:32.815Z,9.00
2019-03-04T07:04:32.794Z,9.04
2019-03-04T07:05:32.745Z,9.13
2019-03-04T07:06:32.712Z,9.14
2019-03-04T07:07:32.680Z,9.26
2019-03-04T07:08:32.642Z,9.36
2019-03-04T07:09:32.603Z,9.46
2019-03-04T07:10:32.585Z,9.72
2019-03-04T07:11:32.532Z,9.83
2019-03-04T07:12:32.496Z,9.95
2019-03-04T07:13:32.462Z,10.01
2019-03-04T07:14:32.436Z,10.25
2019-03-04T07:15:32.394Z,10.25
2019-03-04T07:16:32.371Z,9.92
2019-03-04T07:17:32.322Z,9.74
2019-03-04T07:18:32.295Z,9.58
2019-03-04T07:19:32.255Z,9.41
2019-03-04T07:20:32.224Z,9.43
2019-03-04T07:21:32.193Z,9.40
2019-03-04T07:22:32.152Z,9.36
2019-03-04T07:23:32.112Z,9.31
2019-03-04T07:24:32.081Z,9.26
2019-03-04T07:25:32.048Z,9.25
2019-03-04T07:26:32.017Z,9.28
2019-03-04T07:27:31.978Z,9.25
2019-03-04T07:28:31.938Z,9.26
2019-03-04T07:29:31.898Z,9.39
2019-03-04T07:30:31.858Z,9.25
2019-03-04T07:31:31.823Z,9.32
2019-03-04T07:32:31.812Z,9.19
2019-03-04T07:33:31.756Z,9.03
2019-03-04T07:34:33.781Z,8.70
2019-03-04T07:35:31.686Z,8.69
2019-03-04T07:36:31.658Z,8.79
2019-03-04T07:37:31.622Z,8.91
2019-03-04T07:38:31.593Z,9.00
2019-03-04T07:39:31.553Z,9.13
2019-03-04T07:40:31.518Z,9.03
2019-03-04T07:41:31.482Z,9.03
2019-03-04T07:42:31.441Z,9.03
2019-03-04T07:43:31.414Z,9.14
2019-03-04T07:44:31.374Z,9.13
2019-03-04T07:45:31.347Z,9.14
2019-03-04T07:46:31.303Z,9.26
2019-03-04T07:47:31.278Z,9.37
2019-03-04T07:48:31.230Z,9.47
2019-03-04T07:49:31.199Z,9.44
2019-03-04T07:50:31.158Z,9.59
2019-03-04T07:51:31.133Z,9.62
2019-03-04T07:52:31.103Z,9.64
2019-03-04T07:53:31.064Z,9.59
2019-03-04T07:54:31.033Z,9.61
2019-03-04T07:55:30.994Z,9.68
2019-03-04T07:56:30.945Z,9.69
2019-03-04T07:57:30.913Z,9.76
2019-03-04T07:58:30.878Z,9.76
2019-03-04T07:59:30.841Z,9.83
2019-03-04T08:00:30.805Z,9.83
2019-03-04T08:01:30.776Z,9.92
2019-03-04T08:02:30.733Z,9.94
2019-03-04T08:03:30.695Z,9.97
2019-03-04T08:04:30.664Z,9.97
2019-03-04T08:05:30.633Z,10.05
2019-03-04T08:06:30.600Z,10.04
2019-03-04T08:07:30.565Z,10.01
2019-03-04T08:08:30.531Z,10.10
2019-03-04T08:09:30.501Z,10.20
2019-03-04T08:10:30.460Z,10.25
2019-03-04T08:11:30.422Z,10.23
2019-03-04T08:12:30.400Z,10.25
2019-03-04T08:13:30.358Z,10.16
2019-03-04T08:14:30.330Z,10.23
2019-03-04T08:15:30.295Z,10.15
2019-03-04T08:16:30.251Z,10.15
2019-03-04T08:17:30.220Z,10.15
2019-03-04T08:18:30.189Z,10.26
2019-03-04T08:19:30.150Z,10.16
2019-03-04T08:20:30.116Z,10.10
2019-03-04T08:21:30.081Z,10.13
2019-03-04T08:22:30.042Z,10.09
2019-03-04T08:23:30.010Z,10.15
2019-03-04T08:24:29.971Z,10.17
2019-03-04T08:25:29.940Z,10.16
2019-03-04T08:26:29.910Z,10.09
2019-03-04T08:27:29.865Z,10.09
2019-03-04T08:28:29.857Z,10.09
2019-03-04T08:29:29.800Z,10.23
2019-03-04T08:30:29.766Z,10.19
2019-03-04T08:31:29.732Z,10.22
2019-03-04T08:32:29.697Z,10.23
2019-03-04T08:33:29.661Z,10.31
2019-03-04T08:34:31.371Z,10.44
2019-03-04T08:35:29.591Z,10.41
2019-03-04T08:36:29.557Z,10.41
2019-03-04T08:37:29.532Z,10.48
2019-03-04T08:38:29.487Z,10.53
2019-03-04T08:39:29.454Z,10.49
2019-03-04T08:40:29.413Z,10.59
2019-03-04T08:41:29.382Z,10.63
2019-03-04T08:42:29.362Z,10.68
2019-03-04T08:43:29.313Z,10.64
2019-03-04T08:44:31.068Z,10.75
2019-03-04T08:45:29.241Z,10.75
2019-03-04T08:46:29.216Z,10.79
2019-03-04T08:47:29.181Z,10.84
2019-03-04T08:48:29.152Z,10.84
2019-03-04T08:49:29.126Z,10.86
2019-03-04T08:50:29.084Z,10.93
2019-03-04T08:51:29.045Z,10.92
2019-03-04T08:52:29.016Z,11.00
2019-03-04T08:53:30.926Z,11.00
2019-03-04T08:54:28.936Z,11.10
2019-03-04T08:55:28.911Z,11.11
2019-03-04T08:56:28.873Z,11.19
2019-03-04T08:57:28.847Z,11.14
2019-03-04T08:58:28.812Z,11.17
2019-03-04T08:59:28.767Z,11.15
2019-03-04T09:00:28.733Z,11.18
2019-03-04T09:01:28.697Z,11.22
2019-03-04T09:02:28.678Z,11.11
2019-03-04T09:03:28.632Z,11.10
2019-03-04T09:04:28.604Z,11.17
2019-03-04T09:05:28.562Z,11.22
2019-03-04T09:06:28.537Z,11.23
2019-03-04T09:07:28.504Z,11.30
2019-03-04T09:08:28.459Z,11.23
2019-03-04T09:09:28.430Z,11.19
2019-03-04T09:10:28.398Z,11.25
2019-03-04T09:11:28.359Z,11.23
2019-03-04T09:12:28.333Z,11.25
2019-03-04T09:13:28.299Z,11.27
2019-03-04T09:14:28.255Z,11.29
2019-03-04T09:15:28.243Z,11.22
2019-03-04T09:16:28.193Z,11.23
2019-03-04T09:17:28.165Z,11.25
2019-03-04T09:18:28.128Z,11.44
2019-03-04T09:19:28.084Z,11.43
2019-03-04T09:20:28.058Z,11.45
2019-03-04T09:21:28.022Z,11.45
2019-03-04T09:22:27.997Z,11.59
2019-03-04T09:23:27.960Z,11.65
2019-03-04T09:24:27.923Z,11.63
2019-03-04T09:25:30.618Z,11.59
2019-03-04T09:26:27.855Z,11.70
2019-03-04T09:27:27.828Z,11.77
2019-03-04T09:28:27.786Z,11.78
2019-03-04T09:29:27.753Z,11.86
2019-03-04T09:30:27.724Z,11.86
2019-03-04T09:31:27.694Z,11.95
2019-03-04T09:32:27.654Z,11.91
2019-03-04T09:33:27.629Z,12.07
2019-03-04T09:34:27.594Z,12.02
2019-03-04T09:35:27.552Z,12.10
2019-03-04T09:36:27.524Z,12.03
2019-03-04T09:37:27.488Z,12.13
2019-03-04T09:38:27.453Z,12.18
2019-03-04T09:39:27.422Z,12.31
2019-03-04T09:40:27.391Z,12.31
2019-03-04T09:41:27.375Z,12.35
2019-03-04T09:42:27.331Z,12.29
2019-03-04T09:43:27.281Z,12.27
2019-03-04T09:44:27.261Z,12.10
2019-03-04T09:45:27.226Z,12.17
2019-03-04T09:46:27.202Z,12.18
2019-03-04T09:47:27.159Z,12.13
2019-03-04T09:48:27.133Z,12.15
2019-03-04T09:49:27.099Z,12.18
2019-03-04T09:50:27.056Z,12.25
2019-03-04T09:51:27.077Z,12.15
2019-03-04T09:52:27.005Z,12.22
2019-03-04T09:53:26.966Z,12.25
2019-03-04T09:54:26.926Z,12.06
2019-03-04T09:55:26.901Z,12.04
2019-03-04T09:56:26.862Z,12.20
2019-03-04T09:57:26.827Z,12.29
2019-03-04T09:58:26.800Z,12.27
2019-03-04T09:59:26.757Z,12.24
2019-03-04T10:00:26.731Z,12.37
2019-03-04T10:01:26.695Z,12.57
2019-03-04T10:02:26.669Z,12.65
2019-03-04T10:03:26.646Z,12.93
2019-03-04T10:04:26.606Z,13.30
2019-03-04T10:05:26.568Z,13.44
2019-03-04T10:06:26.545Z,13.60
2019-03-04T10:07:26.522Z,13.77
2019-03-04T10:08:32.895Z,14.10
2019-03-04T10:09:26.451Z,13.78
2019-03-04T10:10:26.423Z,13.95
2019-03-04T10:11:26.396Z,14.04
2019-03-04T10:12:26.364Z,14.26
2019-03-04T10:13:26.336Z,14.48
2019-03-04T10:14:26.297Z,14.53
2019-03-04T10:15:34.926Z,14.37
2019-03-04T10:17:30.703Z,14.40
2019-03-04T10:18:30.655Z,14.62
2019-03-04T10:19:30.618Z,14.69
2019-03-04T10:20:30.593Z,15.06
2019-03-04T10:21:30.584Z,14.82
2019-03-04T10:22:30.533Z,14.59
2019-03-04T10:23:30.506Z,14.82
2019-03-04T10:24:30.509Z,14.86
2019-03-04T10:25:30.461Z,14.85
2019-03-04T10:26:30.467Z,15.10
2019-03-04T10:27:30.393Z,15.14
2019-03-04T10:28:30.363Z,14.97
2019-03-04T10:29:30.337Z,15.15
2019-03-04T10:30:30.316Z,15.06
2019-03-04T10:31:30.293Z,14.55
2019-03-04T10:32:30.262Z,14.72
2019-03-04T10:33:30.232Z,14.62
2019-03-04T10:34:32.019Z,14.63
2019-03-04T10:35:30.163Z,14.51
2019-03-04T10:36:30.143Z,14.44
2019-03-04T10:37:30.123Z,14.28
2019-03-04T10:38:30.088Z,14.58
2019-03-04T10:39:30.062Z,14.36
2019-03-04T10:40:30.037Z,13.95
2019-03-04T10:41:30.015Z,13.97
2019-03-04T10:42:29.990Z,13.89
2019-03-04T10:43:29.943Z,13.96
2019-03-04T10:44:29.924Z,14.00
2019-03-04T10:45:29.895Z,13.75
2019-03-04T10:46:29.864Z,13.77
2019-03-04T10:47:29.828Z,13.65
2019-03-04T10:48:29.799Z,13.57
2019-03-04T10:49:29.766Z,13.54
2019-03-04T10:50:29.737Z,13.47
2019-03-04T10:51:29.714Z,13.44
2019-03-04T10:52:29.679Z,13.49
2019-03-04T10:53:29.641Z,13.38
2019-03-04T10:54:29.614Z,13.28
2019-03-04T10:55:29.584Z,13.23
2019-03-04T10:56:29.563Z,13.11
2019-03-04T10:57:29.525Z,13.15
2019-03-04T10:58:29.487Z,12.98
2019-03-04T10:59:29.472Z,12.65
2019-03-04T11:00:29.430Z,12.78
2019-03-04T11:01:30.633Z,12.68
2019-03-04T11:02:29.380Z,12.46
2019-03-04T11:03:29.336Z,12.28
2019-03-04T11:04:29.300Z,12.20
2019-03-04T11:05:29.275Z,12.06
2019-03-04T11:06:29.239Z,12.10
2019-03-04T11:07:29.200Z,12.09
2019-03-04T11:08:29.177Z,12.09
2019-03-04T11:09:29.139Z,12.06
2019-03-04T11:10:29.114Z,12.18
2019-03-04T11:11:30.034Z,12.22
2019-03-04T11:12:29.049Z,12.22
2019-03-04T11:13:29.010Z,12.17
2019-03-04T11:14:28.976Z,12.18
2019-03-04T11:15:28.952Z,12.27
2019-03-04T11:16:28.917Z,12.31
2019-03-04T11:17:28.882Z,12.32
2019-03-04T11:18:28.864Z,12.29
2019-03-04T11:19:28.812Z,12.25
2019-03-04T11:20:28.784Z,12.32
2019-03-04T11:21:28.747Z,12.36
2019-03-04T11:22:28.715Z,12.65
2019-03-04T11:23:28.685Z,12.70
2019-03-04T11:24:28.675Z,12.68
2019-03-04T11:25:28.627Z,12.82
2019-03-04T11:26:28.590Z,12.98
2019-03-04T11:27:28.561Z,12.85
2019-03-04T11:28:28.526Z,12.76
2019-03-04T11:29:28.488Z,12.54
2019-03-04T11:30:28.467Z,12.28
2019-03-04T11:31:28.446Z,12.32
2019-03-04T11:32:28.402Z,12.15
2019-03-04T11:33:28.371Z,12.07
2019-03-04T11:34:28.335Z,12.03
2019-03-04T11:35:28.304Z,11.80
2019-03-04T11:36:28.272Z,11.12
2019-03-04T11:37:28.243Z,10.15
2019-03-04T11:38:28.207Z,9.56
2019-03-04T11:39:28.182Z,9.14
2019-03-04T11:40:28.141Z,8.60
2019-03-04T11:41:28.119Z,7.85
2019-03-04T11:42:28.077Z,7.75
2019-03-04T11:43:28.043Z,7.67
2019-03-04T11:44:28.011Z,7.63
2019-03-04T11:45:27.993Z,7.36
2019-03-04T11:46:27.946Z,7.54
2019-03-04T11:47:27.915Z,7.33
2019-03-04T11:48:27.872Z,7.18
2019-03-04T11:49:27.834Z,7.24
2019-03-04T11:50:27.799Z,7.28
2019-03-04T11:51:27.768Z,7.25
2019-03-04T11:52:27.738Z,7.17
2019-03-04T11:53:27.697Z,7.18
2019-03-04T11:54:27.667Z,7.14
2019-03-04T11:55:27.636Z,7.14
2019-03-04T11:56:27.591Z,7.11
2019-03-04T11:57:27.562Z,7.14
2019-03-04T11:58:27.559Z,6.89
2019-03-04T11:59:27.483Z,7.05
2019-03-04T12:00:27.458Z,7.00
2019-03-04T12:01:27.415Z,7.03
2019-03-04T12:02:27.384Z,7.03
2019-03-04T12:03:27.347Z,7.02
2019-03-04T12:04:27.314Z,7.11
2019-03-04T12:05:27.277Z,7.00
2019-03-04T12:06:27.229Z,7.02
2019-03-04T12:07:27.207Z,7.06
2019-03-04T12:08:27.175Z,7.06
2019-03-04T12:09:27.125Z,7.10
2019-03-04T12:10:27.107Z,7.06
2019-03-04T12:11:27.058Z,7.15
2019-03-04T12:12:27.023Z,7.10
2019-03-04T12:13:26.985Z,7.18
2019-03-04T12:14:26.948Z,7.18
2019-03-04T12:15:26.914Z,7.23
2019-03-04T12:16:26.883Z,7.24
2019-03-04T12:17:26.842Z,7.14
2019-03-04T12:18:26.798Z,7.25
2019-03-04T12:19:28.757Z,7.28
2019-03-04T12:20:26.731Z,7.28
2019-03-04T12:21:26.709Z,7.28
2019-03-04T12:22:26.660Z,7.38
2019-03-04T12:23:26.628Z,7.31
2019-03-04T12:24:26.600Z,7.29
2019-03-04T12:25:26.559Z,7.36
2019-03-04T12:26:26.525Z,7.32
2019-03-04T12:27:26.487Z,7.39
2019-03-04T12:28:26.445Z,7.35
2019-03-04T12:29:26.408Z,7.38
2019-03-04T12:30:26.384Z,7.39
2019-03-04T12:31:28.356Z,7.36
2019-03-04T12:32:26.303Z,7.35
2019-03-04T12:33:26.290Z,7.36
2019-03-04T12:34:26.226Z,7.45
2019-03-04T12:35:26.214Z,7.47
2019-03-04T12:36:26.173Z,7.42
2019-03-04T12:37:26.124Z,7.48
2019-03-04T12:38:26.090Z,7.61
2019-03-04T12:39:26.044Z,7.54
2019-03-04T12:40:26.022Z,7.54
2019-03-04T12:41:25.986Z,7.61
2019-03-04T12:42:25.947Z,7.61
2019-03-04T12:43:25.910Z,7.67
2019-03-04T12:44:25.872Z,7.77
2019-03-04T12:45:34.078Z,7.90
2019-03-04T12:46:25.806Z,7.91
2019-03-04T12:47:25.765Z,8.03
2019-03-04T12:48:25.729Z,8.06
2019-03-04T12:49:25.696Z,8.00
2019-03-04T12:50:25.655Z,8.20
2019-03-04T12:51:25.619Z,8.03
2019-03-04T12:52:25.607Z,8.20
2019-03-04T12:53:25.556Z,8.28
2019-03-04T12:54:25.519Z,8.42
2019-03-04T12:55:25.475Z,8.46
2019-03-04T12:56:25.452Z,8.69
2019-03-04T12:57:25.416Z,8.66
2019-03-04T12:58:25.380Z,8.56
2019-03-04T12:59:25.340Z,8.44
2019-03-04T13:00:25.305Z,8.41